createdAt,value
2023-02-15T00:01:50.832Z,20.42
2023-02-15T00:04:23.298Z,24.67
2023-02-15T00:06:52.617Z,21.67
2023-02-15T00:09:20.213Z,22.67
2023-02-15T00:11:51.710Z,22.85
2023-02-15T00:14:21.593Z,20.73
2023-02-15T00:16:51.493Z,22.50
2023-02-15T00:19:21.481Z,23.45
2023-02-15T00:21:50.516Z,22.75
2023-02-15T00:24:21.170Z,24.15
2023-02-15T00:26:50.168Z,24.30
2023-02-15T00:29:19.747Z,22.05
2023-02-15T00:31:47.559Z,21.83
2023-02-15T00:34:17.285Z,22.88
2023-02-15T00:36:45.619Z,23.17
2023-02-15T00:39:13.865Z,23.77
2023-02-15T00:41:43.374Z,51.90
2023-02-15T00:44:11.172Z,26.27
2023-02-15T00:46:38.856Z,24.35
2023-02-15T00:49:06.982Z,24.58
2023-02-15T00:51:35.215Z,25.60
2023-02-15T00:54:02.938Z,23.90
2023-02-15T00:56:30.568Z,24.42
2023-02-15T00:58:59.551Z,25.35
2023-02-15T01:01:27.382Z,23.67
2023-02-15T01:03:55.141Z,25.10
2023-02-15T01:06:22.950Z,23.95
2023-02-15T01:08:50.745Z,22.80
2023-02-15T01:11:22.871Z,25.17
2023-02-15T01:13:51.895Z,24.73
2023-02-15T01:16:21.415Z,23.50
2023-02-15T01:18:49.618Z,28.00
2023-02-15T01:21:19.421Z,27.58
2023-02-15T01:23:47.287Z,27.27
2023-02-15T01:26:15.716Z,25.27
2023-02-15T01:28:43.404Z,27.52
2023-02-15T01:31:12.916Z,27.33
2023-02-15T01:33:42.726Z,26.40
2023-02-15T01:36:10.400Z,24.63
2023-02-15T01:38:38.156Z,24.20
2023-02-15T01:41:22.615Z,24.95
2023-02-15T01:43:52.507Z,24.60
2023-02-15T01:46:24.024Z,24.35
2023-02-15T01:48:57.045Z,26.17
2023-02-15T01:51:28.485Z,27.02
2023-02-15T01:54:01.655Z,25.80
2023-02-15T01:56:33.722Z,23.05
2023-02-15T01:59:06.617Z,26.33
2023-02-15T02:01:34.341Z,26.45
2023-02-15T02:04:11.040Z,26.30
2023-02-15T02:06:41.199Z,26.27
2023-02-15T02:09:09.005Z,26.75
2023-02-15T02:11:36.937Z,27.33
2023-02-15T02:14:04.720Z,25.70
2023-02-15T02:16:44.133Z,25.00
2023-02-15T02:19:30.295Z,28.90
2023-02-15T02:22:49.233Z,28.15
2023-02-15T02:25:57.556Z,28.95
2023-02-15T02:28:48.226Z,29.02
2023-02-15T02:31:42.214Z,29.73
2023-02-15T02:34:15.191Z,29.50
2023-02-15T02:36:51.286Z,28.75
2023-02-15T02:39:30.910Z,29.30
2023-02-15T02:42:03.626Z,29.35
2023-02-15T02:44:36.983Z,29.65
2023-02-15T02:47:08.202Z,30.15
2023-02-15T02:49:40.282Z,31.20
2023-02-15T02:52:29.501Z,35.85
2023-02-15T02:54:58.356Z,34.97
2023-02-15T02:57:27.370Z,35.80
2023-02-15T02:59:56.852Z,35.38
2023-02-15T03:02:30.462Z,35.53
2023-02-15T03:05:07.255Z,32.95
2023-02-15T03:07:36.840Z,32.42
2023-02-15T03:10:07.241Z,32.57
2023-02-15T03:15:06.982Z,30.33
2023-02-15T03:20:10.617Z,34.42
2023-02-15T03:22:41.842Z,31.83
2023-02-15T03:25:14.457Z,32.75
2023-02-15T03:27:47.011Z,31.42
2023-02-15T03:30:17.192Z,31.08
2023-02-15T03:32:47.086Z,32.03
2023-02-15T03:35:16.641Z,35.20
2023-02-15T03:37:49.680Z,34.80
2023-02-15T03:40:38.918Z,34.78
2023-02-15T03:43:16.025Z,34.15
2023-02-15T03:45:56.346Z,33.92
2023-02-15T03:48:28.487Z,33.88
2023-02-15T03:51:19.892Z,33.55
2023-02-15T03:53:49.137Z,31.05
2023-02-15T03:56:16.879Z,33.90
2023-02-15T03:59:02.240Z,32.03
2023-02-15T04:01:54.526Z,32.42
2023-02-15T04:04:25.873Z,33.83
2023-02-15T04:06:54.937Z,33.58
2023-02-15T04:09:39.823Z,33.53
2023-02-15T04:12:07.638Z,32.95
2023-02-15T04:14:53.249Z,33.05
2023-02-15T04:17:20.956Z,34.67
2023-02-15T04:20:06.245Z,32.63
2023-02-15T04:22:52.762Z,34.90
2023-02-15T04:25:20.970Z,34.45
2023-02-15T04:27:51.187Z,34.22
2023-02-15T04:30:20.693Z,34.00
2023-02-15T04:32:48.563Z,34.90
2023-02-15T04:35:17.310Z,31.25
2023-02-15T04:37:46.412Z,34.05
2023-02-15T04:40:18.718Z,33.75
2023-02-15T04:42:49.411Z,34.90
2023-02-15T04:45:17.446Z,32.90
2023-02-15T04:47:45.206Z,34.15
2023-02-15T04:50:13.422Z,34.38
2023-02-15T04:52:41.178Z,35.63
2023-02-15T04:55:11.022Z,33.33
2023-02-15T04:57:38.627Z,34.63
2023-02-15T05:00:07.500Z,34.33
2023-02-15T05:02:35.147Z,32.72
2023-02-15T05:05:02.798Z,33.75
2023-02-15T05:07:30.420Z,34.22
2023-02-15T05:09:58.132Z,36.47
2023-02-15T05:12:27.149Z,35.10
2023-02-15T05:14:54.768Z,35.33
2023-02-15T05:17:22.385Z,34.80
2023-02-15T05:19:50.087Z,35.28
2023-02-15T05:22:17.736Z,35.08
2023-02-15T05:25:02.954Z,33.90
2023-02-15T05:27:49.622Z,33.58
2023-02-15T05:30:17.458Z,34.58
2023-02-15T05:32:45.346Z,34.30
2023-02-15T05:35:16.379Z,34.60
2023-02-15T05:37:44.236Z,36.20
2023-02-15T05:40:12.892Z,34.17
2023-02-15T05:42:41.952Z,34.90
2023-02-15T05:45:09.770Z,36.50
2023-02-15T05:47:37.396Z,35.35
2023-02-15T05:50:05.480Z,34.78
2023-02-15T05:52:33.144Z,34.95
2023-02-15T05:55:01.391Z,35.42
2023-02-15T05:57:29.127Z,34.72
2023-02-15T05:59:58.687Z,37.00
2023-02-15T06:02:26.351Z,36.77
2023-02-15T06:04:54.095Z,36.13
2023-02-15T06:07:21.730Z,37.08
2023-02-15T06:09:49.418Z,36.00
2023-02-15T06:12:17.039Z,35.17
2023-02-15T06:14:44.835Z,35.10
2023-02-15T06:17:13.920Z,36.95
2023-02-15T06:19:41.680Z,37.58
2023-02-15T06:22:09.318Z,36.13
2023-02-15T06:24:37.035Z,36.28
2023-02-15T06:27:04.903Z,35.30
2023-02-15T06:29:32.474Z,34.60
2023-02-15T06:32:00.278Z,35.83
2023-02-15T06:34:29.430Z,37.42
2023-02-15T06:36:57.117Z,33.78
2023-02-15T06:39:24.789Z,33.92
2023-02-15T06:41:52.594Z,35.00
2023-02-15T06:44:20.281Z,34.70
2023-02-15T06:46:48.016Z,32.58
2023-02-15T06:49:15.729Z,34.35
2023-02-15T06:51:44.754Z,34.53
2023-02-15T06:54:12.620Z,35.25
2023-02-15T06:56:40.354Z,34.33
2023-02-15T06:59:08.046Z,32.67
2023-02-15T07:01:37.898Z,32.75
2023-02-15T07:04:06.004Z,38.25
2023-02-15T07:06:34.683Z,33.75
2023-02-15T07:09:03.837Z,35.35
2023-02-15T07:11:50.185Z,33.60
2023-02-15T07:14:17.822Z,33.45
2023-02-15T07:16:45.623Z,32.65
2023-02-15T07:19:13.306Z,34.22
2023-02-15T07:21:40.893Z,32.92
2023-02-15T07:24:09.987Z,31.23
2023-02-15T07:26:37.684Z,31.08
2023-02-15T07:29:05.370Z,29.92
2023-02-15T07:31:33.042Z,31.45
2023-02-15T07:34:00.693Z,31.35
2023-02-15T07:36:28.449Z,33.25
2023-02-15T07:38:56.157Z,31.58
2023-02-15T07:41:25.447Z,30.65
2023-02-15T07:43:53.152Z,35.22
2023-02-15T07:46:21.779Z,28.55
2023-02-15T07:48:49.705Z,31.58
2023-02-15T07:51:17.485Z,32.22
2023-02-15T07:53:45.285Z,31.98
2023-02-15T07:56:14.939Z,31.60
2023-02-15T07:58:53.096Z,31.80
2023-02-15T08:01:22.889Z,31.23
2023-02-15T08:03:50.704Z,30.45
2023-02-15T08:06:18.956Z,30.77
2023-02-15T08:08:46.595Z,32.42
2023-02-15T08:11:37.413Z,30.38
2023-02-15T08:14:08.214Z,32.22
2023-02-15T08:16:38.547Z,31.80
2023-02-15T08:21:36.961Z,35.30
2023-02-15T08:24:06.327Z,31.10
2023-02-15T08:26:34.363Z,33.20
2023-02-15T08:29:03.203Z,35.22
2023-02-15T08:31:32.305Z,31.95
2023-02-15T08:34:00.205Z,39.40
2023-02-15T08:36:29.678Z,31.98
2023-02-15T08:38:59.735Z,33.03
2023-02-15T08:41:30.278Z,33.58
2023-02-15T08:43:59.553Z,35.17
2023-02-15T08:46:28.880Z,33.58
2023-02-15T08:48:58.443Z,32.25
2023-02-15T08:51:27.856Z,35.73
2023-02-15T08:53:57.327Z,34.70
2023-02-15T08:56:27.298Z,38.93
2023-02-15T08:58:55.525Z,35.13
2023-02-15T09:01:25.203Z,34.80
2023-02-15T09:03:54.639Z,34.55
2023-02-15T09:06:24.308Z,32.88
2023-02-15T09:08:52.572Z,32.20
2023-02-15T09:11:24.820Z,34.70
2023-02-15T09:13:55.904Z,33.30
2023-02-15T09:16:24.783Z,32.67
2023-02-15T09:18:53.400Z,31.13
2023-02-15T09:21:24.955Z,31.48
2023-02-15T09:23:54.092Z,37.70
2023-02-15T09:26:23.802Z,35.38
2023-02-15T09:28:56.492Z,32.67
2023-02-15T09:31:25.465Z,35.38
2023-02-15T09:33:53.513Z,35.00
2023-02-15T09:36:24.775Z,32.92
2023-02-15T09:38:57.325Z,35.60
2023-02-15T09:42:01.489Z,34.95
2023-02-15T09:44:46.733Z,34.10
2023-02-15T09:47:33.462Z,35.03
2023-02-15T09:50:08.400Z,34.78
2023-02-15T09:52:50.322Z,32.95
2023-02-15T09:55:30.866Z,32.50
2023-02-15T10:00:42.632Z,31.92
2023-02-15T10:03:23.347Z,33.45
2023-02-15T10:06:05.165Z,32.58
2023-02-15T10:08:50.509Z,35.22
2023-02-15T10:11:43.209Z,31.70
2023-02-15T10:14:23.461Z,32.58
2023-02-15T10:17:04.221Z,33.67
2023-02-15T10:19:44.700Z,34.30
2023-02-15T10:25:26.407Z,31.25
2023-02-15T10:27:55.469Z,31.48
2023-02-15T10:30:32.370Z,29.77
2023-02-15T10:33:02.632Z,30.98
2023-02-15T10:35:42.297Z,32.03
2023-02-15T10:38:37.352Z,31.20
2023-02-15T10:41:17.284Z,30.83
2023-02-15T10:43:59.038Z,31.85
2023-02-15T10:46:47.648Z,32.17
2023-02-15T10:49:33.739Z,31.45
2023-02-15T10:52:23.440Z,32.10
2023-02-15T10:57:28.644Z,29.30
2023-02-15T11:00:07.164Z,30.23
2023-02-15T11:03:01.309Z,30.25
2023-02-15T11:05:41.191Z,31.23
2023-02-15T11:08:12.134Z,30.65
2023-02-15T11:10:44.183Z,31.33
2023-02-15T11:13:15.798Z,30.85
2023-02-15T11:15:50.266Z,30.10
2023-02-15T11:18:27.224Z,30.10
2023-02-15T11:20:57.693Z,31.67
2023-02-15T11:25:58.682Z,28.45
2023-02-15T11:28:32.255Z,28.02
2023-02-15T11:31:13.326Z,28.40
2023-02-15T11:33:46.442Z,26.88
2023-02-15T11:36:18.255Z,30.23
2023-02-15T11:38:48.105Z,28.95
2023-02-15T11:41:20.818Z,28.25
2023-02-15T11:43:55.363Z,26.83
2023-02-15T11:46:24.801Z,25.05
2023-02-15T11:48:52.463Z,25.45
2023-02-15T11:51:23.960Z,25.00
2023-02-15T11:53:53.489Z,23.38
2023-02-15T11:56:24.696Z,23.95
2023-02-15T11:58:57.956Z,24.35
2023-02-15T12:01:32.792Z,23.17
2023-02-15T12:04:04.694Z,24.33
2023-02-15T12:06:36.042Z,23.42
2023-02-15T12:09:11.614Z,23.85
2023-02-15T12:11:41.213Z,23.85
2023-02-15T12:14:12.545Z,23.38
2023-02-15T12:16:46.729Z,24.83
2023-02-15T12:19:32.725Z,24.02
2023-02-15T12:22:03.026Z,24.73
2023-02-15T12:24:34.269Z,24.77
2023-02-15T12:27:04.648Z,23.70
2023-02-15T12:29:38.110Z,23.10
2023-02-15T12:32:12.325Z,23.10
2023-02-15T12:34:42.246Z,21.98
2023-02-15T12:37:17.070Z,21.58
2023-02-15T12:39:54.650Z,22.00
2023-02-15T12:42:22.763Z,23.15
2023-02-15T12:45:00.515Z,22.35
2023-02-15T12:47:31.521Z,19.40
2023-02-15T12:50:17.796Z,17.67
2023-02-15T12:52:48.505Z,18.90
2023-02-15T12:58:07.437Z,20.27
2023-02-15T13:00:35.651Z,21.02
2023-02-15T13:03:05.722Z,21.48
2023-02-15T13:05:37.362Z,20.70
2023-02-15T13:08:12.627Z,19.67
2023-02-15T13:10:45.001Z,20.73
2023-02-15T13:13:22.692Z,19.85
2023-02-15T13:15:53.997Z,19.80
2023-02-15T13:18:31.652Z,18.85
2023-02-15T13:21:02.350Z,18.83
2023-02-15T13:23:32.120Z,19.55
2023-02-15T13:26:04.602Z,19.98
2023-02-15T13:28:40.645Z,18.67
2023-02-15T13:31:15.604Z,18.42
2023-02-15T13:33:48.692Z,18.15
2023-02-15T13:36:25.660Z,18.13
2023-02-15T13:39:11.530Z,18.40
2023-02-15T13:41:51.963Z,18.77
2023-02-15T13:44:30.109Z,19.60
2023-02-15T13:47:17.774Z,19.95
2023-02-15T13:50:01.608Z,18.38
2023-02-15T13:52:31.121Z,17.92
2023-02-15T13:55:29.355Z,19.80
2023-02-15T13:58:28.505Z,20.13
2023-02-15T14:01:10.545Z,19.65
2023-02-15T14:04:22.863Z,18.52
2023-02-15T14:07:21.072Z,20.08
2023-02-15T14:09:59.682Z,17.65
2023-02-15T14:12:44.279Z,20.92
2023-02-15T14:15:37.380Z,17.92
2023-02-15T14:18:15.248Z,19.02
2023-02-15T14:20:53.567Z,18.80
2023-02-15T14:23:37.071Z,18.17
2023-02-15T14:26:10.746Z,16.77
2023-02-15T14:28:47.955Z,17.73
2023-02-15T14:31:17.380Z,18.15
2023-02-15T14:33:52.982Z,15.95
2023-02-15T14:36:21.963Z,17.17
2023-02-15T14:38:58.498Z,16.80
2023-02-15T14:41:35.930Z,18.30
2023-02-15T14:44:12.735Z,17.60
2023-02-15T14:46:48.340Z,18.35
2023-02-15T14:49:19.308Z,17.23
2023-02-15T14:52:05.906Z,16.55
2023-02-15T14:54:58.114Z,17.77
2023-02-15T14:57:34.629Z,17.10
2023-02-15T15:00:18.706Z,16.50
2023-02-15T15:02:50.023Z,16.85
2023-02-15T15:08:01.874Z,15.43
2023-02-15T15:10:43.991Z,15.30
2023-02-15T15:13:39.005Z,16.08
2023-02-15T15:16:33.636Z,16.33
2023-02-15T15:19:01.504Z,15.98
2023-02-15T15:21:54.835Z,14.88
2023-02-15T15:24:52.050Z,15.60
2023-02-15T15:27:44.182Z,15.60
2023-02-15T15:30:49.936Z,15.48
2023-02-15T15:33:43.654Z,16.23
2023-02-15T15:36:38.303Z,16.23
2023-02-15T15:39:19.830Z,15.25
2023-02-15T15:41:55.259Z,15.75
2023-02-15T15:45:01.457Z,15.07
2023-02-15T15:47:44.722Z,14.18
2023-02-15T15:50:16.031Z,15.13
2023-02-15T15:52:48.988Z,14.65
2023-02-15T15:55:19.569Z,14.40
2023-02-15T16:00:36.072Z,15.68
2023-02-15T16:03:05.299Z,14.55
2023-02-15T16:05:40.106Z,14.57
2023-02-15T16:08:08.617Z,14.75
2023-02-15T16:10:38.856Z,15.55
2023-02-15T16:13:08.186Z,15.95
2023-02-15T16:15:38.998Z,15.68
2023-02-15T16:18:08.159Z,15.57
2023-02-15T16:20:38.075Z,14.77
2023-02-15T16:23:25.708Z,21.67
2023-02-15T16:26:04.988Z,18.25
2023-02-15T16:28:32.865Z,14.13
2023-02-15T16:31:11.849Z,15.75
2023-02-15T16:33:43.673Z,13.77
2023-02-15T16:36:13.358Z,15.02
2023-02-15T16:39:08.750Z,15.53
2023-02-15T16:41:36.822Z,15.48
2023-02-15T16:44:09.448Z,15.93
2023-02-15T16:46:39.893Z,15.35
2023-02-15T16:49:17.964Z,16.02
2023-02-15T16:51:47.143Z,15.05
2023-02-15T16:54:21.266Z,15.80
2023-02-15T16:56:49.617Z,16.75
2023-02-15T16:59:29.813Z,16.15
2023-02-15T17:01:58.453Z,14.98
2023-02-15T17:04:32.243Z,16.40
2023-02-15T17:07:02.837Z,15.05
2023-02-15T17:12:00.600Z,15.90
2023-02-15T17:14:32.768Z,16.95
2023-02-15T17:17:08.177Z,17.00
2023-02-15T17:19:49.375Z,16.92
2023-02-15T17:22:21.452Z,18.13
2023-02-15T17:24:52.204Z,17.52
2023-02-15T17:27:23.762Z,17.17
2023-02-15T17:29:53.977Z,16.80
2023-02-15T17:32:24.202Z,18.73
2023-02-15T17:35:11.123Z,17.70
2023-02-15T17:37:47.835Z,18.85
2023-02-15T17:40:25.351Z,18.33
2023-02-15T17:42:53.582Z,17.17
2023-02-15T17:45:22.283Z,17.70
2023-02-15T17:47:50.928Z,17.67
2023-02-15T17:50:23.462Z,17.40
2023-02-15T17:52:51.735Z,17.13
2023-02-15T17:55:38.993Z,17.48
2023-02-15T17:58:09.382Z,16.55
2023-02-15T18:00:57.821Z,17.83
2023-02-15T18:03:43.650Z,19.35
2023-02-15T18:06:32.574Z,19.15
2023-02-15T18:09:17.863Z,18.80
2023-02-15T18:11:48.649Z,20.33
2023-02-15T18:14:16.382Z,18.00
2023-02-15T18:16:46.205Z,17.67
2023-02-15T18:19:17.938Z,19.60
2023-02-15T18:21:47.976Z,19.88
2023-02-15T18:24:18.682Z,19.42
2023-02-15T18:26:46.900Z,19.52
2023-02-15T18:29:14.699Z,20.98
2023-02-15T18:31:43.617Z,20.25
2023-02-15T18:34:23.890Z,19.35
2023-02-15T18:36:53.861Z,19.40
2023-02-15T18:39:27.899Z,19.75
2023-02-15T18:41:55.607Z,18.65
2023-02-15T18:44:23.699Z,22.20
2023-02-15T18:46:51.354Z,22.40
2023-02-15T18:49:18.987Z,20.60
2023-02-15T18:51:46.748Z,20.05
2023-02-15T18:54:22.154Z,21.23
2023-02-15T18:56:55.129Z,21.23
2023-02-15T18:59:23.431Z,21.50
2023-02-15T19:01:51.366Z,21.90
2023-02-15T19:04:19.541Z,19.38
2023-02-15T19:06:48.862Z,21.48
2023-02-15T19:09:21.032Z,20.58
2023-02-15T19:11:51.921Z,22.58
2023-02-15T19:14:26.767Z,21.30
2023-02-15T19:16:54.845Z,20.63
2023-02-15T19:19:22.584Z,21.48
2023-02-15T19:21:51.196Z,21.05
2023-02-15T19:24:25.067Z,21.33
2023-02-15T19:26:53.650Z,19.67
2023-02-15T19:29:26.506Z,20.80
2023-02-15T19:31:54.435Z,19.67
2023-02-15T19:34:22.574Z,20.27
2023-02-15T19:36:53.190Z,19.95
2023-02-15T19:39:31.098Z,20.33
2023-02-15T19:41:58.779Z,21.98
2023-02-15T19:44:26.463Z,20.23
2023-02-15T19:46:54.150Z,20.67
2023-02-15T19:49:21.786Z,20.58
2023-02-15T19:51:49.791Z,20.50
2023-02-15T19:54:28.234Z,21.00
2023-02-15T19:56:58.200Z,21.58
2023-02-15T19:59:27.762Z,20.33
2023-02-15T20:01:55.705Z,20.40
2023-02-15T20:04:23.867Z,22.85
2023-02-15T20:06:53.362Z,21.63
2023-02-15T20:09:23.970Z,23.73
2023-02-15T20:11:52.387Z,23.85
2023-02-15T20:14:21.802Z,21.48
2023-02-15T20:16:49.686Z,25.55
2023-02-15T20:19:17.517Z,25.63
2023-02-15T20:21:51.598Z,24.83
2023-02-15T20:24:21.780Z,22.13
2023-02-15T20:26:49.538Z,22.67
2023-02-15T20:29:19.744Z,24.75
2023-02-15T20:31:48.840Z,22.52
2023-02-15T20:34:16.564Z,36.15
2023-02-15T20:36:44.298Z,25.15
2023-02-15T20:39:16.033Z,23.15
2023-02-15T20:41:47.638Z,23.20
2023-02-15T20:44:21.555Z,21.85
2023-02-15T20:46:52.583Z,22.80
2023-02-15T20:49:20.346Z,21.75
2023-02-15T20:51:48.272Z,19.73
2023-02-15T20:54:18.764Z,21.80
2023-02-15T20:59:26.602Z,21.58
2023-02-15T21:02:00.084Z,20.85
2023-02-15T21:04:32.270Z,20.95
2023-02-15T21:07:00.644Z,20.48
2023-02-15T21:09:28.660Z,23.92
2023-02-15T21:11:59.381Z,24.77
2023-02-15T21:14:29.362Z,26.05
2023-02-15T21:16:58.381Z,24.60
2023-02-15T21:19:26.206Z,24.65
2023-02-15T21:21:54.621Z,27.00
2023-02-15T21:24:24.726Z,26.55
2023-02-15T21:26:53.761Z,28.70
2023-02-15T21:29:23.901Z,27.83
2023-02-15T21:31:51.970Z,27.38
2023-02-15T21:36:47.463Z,24.83
2023-02-15T21:39:19.218Z,23.60
2023-02-15T21:42:06.025Z,25.08
2023-02-15T21:44:51.782Z,29.42
2023-02-15T21:47:38.561Z,29.05
2023-02-15T21:50:21.920Z,36.78
2023-02-15T21:52:51.220Z,33.35
2023-02-15T21:55:19.247Z,29.33
2023-02-15T21:57:47.111Z,29.98
2023-02-15T22:00:17.514Z,29.63
2023-02-15T22:02:46.728Z,27.98
2023-02-15T22:05:16.530Z,26.30
2023-02-15T22:07:44.344Z,26.88
2023-02-15T22:10:13.919Z,25.10
2023-02-15T22:12:43.911Z,26.83
2023-02-15T22:15:20.558Z,27.40
2023-02-15T22:17:48.717Z,26.77
2023-02-15T22:20:19.663Z,27.73
2023-02-15T22:22:47.678Z,27.85
2023-02-15T22:25:18.372Z,31.52
2023-02-15T22:27:47.400Z,31.40
2023-02-15T22:30:23.875Z,34.15
2023-02-15T22:32:51.618Z,41.05
2023-02-15T22:35:24.125Z,38.42
2023-02-15T22:37:51.797Z,32.58
2023-02-15T22:40:21.728Z,31.35
2023-02-15T22:42:51.572Z,31.55
2023-02-15T22:45:22.470Z,32.13
2023-02-15T22:47:52.811Z,29.33
2023-02-15T22:50:22.547Z,30.60
2023-02-15T22:52:50.815Z,28.88
2023-02-15T22:55:22.158Z,32.53
2023-02-15T22:57:53.582Z,29.17
2023-02-15T23:00:25.247Z,27.30
2023-02-15T23:02:53.706Z,24.42
2023-02-15T23:05:23.978Z,24.65
2023-02-15T23:07:51.937Z,25.98
2023-02-15T23:10:23.237Z,26.58
2023-02-15T23:13:08.995Z,26.90
2023-02-15T23:15:37.331Z,26.95
2023-02-15T23:18:18.124Z,26.17
2023-02-15T23:20:47.114Z,25.65
2023-02-15T23:23:16.153Z,24.15
2023-02-15T23:25:45.187Z,25.75
2023-02-15T23:28:20.907Z,25.17
2023-02-15T23:30:49.001Z,24.20
2023-02-15T23:33:17.131Z,24.08
2023-02-15T23:35:44.791Z,25.88
2023-02-15T23:38:19.978Z,24.35
2023-02-15T23:41:11.662Z,24.67
2023-02-15T23:43:42.823Z,24.27
2023-02-15T23:46:22.962Z,22.38
2023-02-15T23:48:50.635Z,22.98
2023-02-15T23:51:18.333Z,23.10
2023-02-15T23:53:46.256Z,24.55
2023-02-15T23:56:16.587Z,21.58
2023-02-15T23:58:46.106Z,23.15
